sensor_id;sensor_type;location;lat;lon;timestamp;P1;durP1;ratioP1;P2;durP2;ratioP2
45392;SDS011;31129;44.810;10.334;2023-05-10T00:00:33;10.48;;;9.02;;
45392;SDS011;31129;44.810;10.334;2023-05-10T00:02:58;12.88;;;9.02;;
45392;SDS011;31129;44.810;10.334;2023-05-10T00:05:24;9.55;;;7.95;;
45392;SDS011;31129;44.810;10.334;2023-05-10T00:07:50;15.80;;;8.70;;
45392;SDS011;31129;44.810;10.334;2023-05-10T00:10:15;11.90;;;9.02;;
45392;SDS011;31129;44.810;10.334;2023-05-10T00:12:41;11.93;;;8.23;;
45392;SDS011;31129;44.810;10.334;2023-05-10T00:15:07;9.45;;;7.90;;
45392;SDS011;31129;44.810;10.334;2023-05-10T00:17:33;13.57;;;9.13;;
45392;SDS011;31129;44.810;10.334;2023-05-10T00:19:58;12.52;;;8.52;;
45392;SDS011;31129;44.810;10.334;2023-05-10T00:22:24;12.45;;;9.77;;
45392;SDS011;31129;44.810;10.334;2023-05-10T00:24:49;12.50;;;9.75;;
45392;SDS011;31129;44.810;10.334;2023-05-10T00:27:15;13.70;;;10.63;;
45392;SDS011;31129;44.810;10.334;2023-05-10T00:29:40;14.57;;;11.18;;
45392;SDS011;31129;44.810;10.334;2023-05-10T00:32:06;16.95;;;11.60;;
45392;SDS011;31129;44.810;10.334;2023-05-10T00:34:31;20.25;;;12.73;;
45392;SDS011;31129;44.810;10.334;2023-05-10T00:36:57;18.88;;;13.68;;
45392;SDS011;31129;44.810;10.334;2023-05-10T00:39:22;14.90;;;11.65;;
45392;SDS011;31129;44.810;10.334;2023-05-10T00:41:48;19.25;;;12.27;;
45392;SDS011;31129;44.810;10.334;2023-05-10T00:44:14;14.88;;;12.18;;
45392;SDS011;31129;44.810;10.334;2023-05-10T00:46:40;18.30;;;11.43;;
45392;SDS011;31129;44.810;10.334;2023-05-10T00:49:06;20.25;;;12.45;;
45392;SDS011;31129;44.810;10.334;2023-05-10T00:51:32;19.73;;;14.20;;
45392;SDS011;31129;44.810;10.334;2023-05-10T00:53:58;15.70;;;12.10;;
45392;SDS011;31129;44.810;10.334;2023-05-10T00:56:23;17.08;;;13.23;;
45392;SDS011;31129;44.810;10.334;2023-05-10T00:58:50;19.20;;;13.57;;
45392;SDS011;31129;44.810;10.334;2023-05-10T01:01:16;17.25;;;12.90;;
45392;SDS011;31129;44.810;10.334;2023-05-10T01:03:42;20.05;;;14.43;;
45392;SDS011;31129;44.810;10.334;2023-05-10T01:06:08;19.95;;;13.52;;
45392;SDS011;31129;44.810;10.334;2023-05-10T01:08:35;17.83;;;12.93;;
45392;SDS011;31129;44.810;10.334;2023-05-10T01:11:01;20.30;;;14.90;;
45392;SDS011;31129;44.810;10.334;2023-05-10T01:13:37;18.42;;;14.55;;
45392;SDS011;31129;44.810;10.334;2023-05-10T01:16:06;18.15;;;13.57;;
45392;SDS011;31129;44.810;10.334;2023-05-10T01:18:36;17.50;;;13.63;;
45392;SDS011;31129;44.810;10.334;2023-05-10T01:21:07;18.25;;;13.60;;
45392;SDS011;31129;44.810;10.334;2023-05-10T01:23:45;16.65;;;13.90;;
45392;SDS011;31129;44.810;10.334;2023-05-10T01:32:30;20.80;;;13.43;;
45392;SDS011;31129;44.810;10.334;2023-05-10T01:35:00;18.30;;;13.05;;
45392;SDS011;31129;44.810;10.334;2023-05-10T01:37:41;14.50;;;12.48;;
45392;SDS011;31129;44.810;10.334;2023-05-10T01:42:50;15.15;;;12.73;;
45392;SDS011;31129;44.810;10.334;2023-05-10T01:45:28;21.83;;;12.93;;
45392;SDS011;31129;44.810;10.334;2023-05-10T01:48:07;15.68;;;12.93;;
45392;SDS011;31129;44.810;10.334;2023-05-10T01:50:35;19.60;;;13.45;;
45392;SDS011;31129;44.810;10.334;2023-05-10T01:53:08;15.02;;;12.25;;
45392;SDS011;31129;44.810;10.334;2023-05-10T01:55:39;17.40;;;13.27;;
45392;SDS011;31129;44.810;10.334;2023-05-10T01:58:13;16.98;;;13.18;;
45392;SDS011;31129;44.810;10.334;2023-05-10T02:00:42;17.35;;;12.60;;
45392;SDS011;31129;44.810;10.334;2023-05-10T02:03:10;19.90;;;13.07;;
45392;SDS011;31129;44.810;10.334;2023-05-10T02:05:37;15.27;;;12.43;;
45392;SDS011;31129;44.810;10.334;2023-05-10T02:08:05;17.73;;;13.85;;
45392;SDS011;31129;44.810;10.334;2023-05-10T02:10:35;14.32;;;12.73;;
45392;SDS011;31129;44.810;10.334;2023-05-10T02:13:01;15.95;;;11.55;;
45392;SDS011;31129;44.810;10.334;2023-05-10T02:15:28;14.48;;;12.00;;
45392;SDS011;31129;44.810;10.334;2023-05-10T02:17:56;16.95;;;12.75;;
45392;SDS011;31129;44.810;10.334;2023-05-10T02:20:23;15.37;;;11.30;;
45392;SDS011;31129;44.810;10.334;2023-05-10T02:22:50;14.18;;;10.40;;
45392;SDS011;31129;44.810;10.334;2023-05-10T02:25:19;11.93;;;10.45;;
45392;SDS011;31129;44.810;10.334;2023-05-10T02:27:46;15.23;;;10.93;;
45392;SDS011;31129;44.810;10.334;2023-05-10T02:30:13;13.60;;;10.40;;
45392;SDS011;31129;44.810;10.334;2023-05-10T02:32:39;11.25;;;10.05;;
45392;SDS011;31129;44.810;10.334;2023-05-10T02:35:07;14.13;;;10.75;;
45392;SDS011;31129;44.810;10.334;2023-05-10T02:37:34;15.87;;;10.50;;
45392;SDS011;31129;44.810;10.334;2023-05-10T02:40:02;17.30;;;10.32;;
45392;SDS011;31129;44.810;10.334;2023-05-10T02:42:31;11.00;;;9.90;;
45392;SDS011;31129;44.810;10.334;2023-05-10T02:45:04;10.50;;;9.40;;
45392;SDS011;31129;44.810;10.334;2023-05-10T02:47:32;12.18;;;9.13;;
45392;SDS011;31129;44.810;10.334;2023-05-10T02:49:58;10.63;;;8.57;;
45392;SDS011;31129;44.810;10.334;2023-05-10T02:52:30;10.63;;;8.02;;
45392;SDS011;31129;44.810;10.334;2023-05-10T02:55:21;9.45;;;7.55;;
45392;SDS011;31129;44.810;10.334;2023-05-10T02:58:00;10.77;;;7.10;;
45392;SDS011;31129;44.810;10.334;2023-05-10T03:00:26;11.02;;;7.60;;
45392;SDS011;31129;44.810;10.334;2023-05-10T03:02:52;8.00;;;7.18;;
45392;SDS011;31129;44.810;10.334;2023-05-10T03:05:18;10.20;;;7.28;;
45392;SDS011;31129;44.810;10.334;2023-05-10T03:07:45;8.05;;;6.78;;
45392;SDS011;31129;44.810;10.334;2023-05-10T03:10:12;7.55;;;6.78;;
45392;SDS011;31129;44.810;10.334;2023-05-10T03:18:37;9.02;;;7.05;;
45392;SDS011;31129;44.810;10.334;2023-05-10T03:21:10;8.77;;;6.90;;
45392;SDS011;31129;44.810;10.334;2023-05-10T03:23:43;9.68;;;6.93;;
45392;SDS011;31129;44.810;10.334;2023-05-10T03:26:14;8.88;;;7.00;;
45392;SDS011;31129;44.810;10.334;2023-05-10T03:28:49;8.48;;;7.00;;
45392;SDS011;31129;44.810;10.334;2023-05-10T03:31:15;10.75;;;6.78;;
45392;SDS011;31129;44.810;10.334;2023-05-10T03:33:50;10.48;;;7.63;;
45392;SDS011;31129;44.810;10.334;2023-05-10T03:36:22;7.70;;;6.85;;
45392;SDS011;31129;44.810;10.334;2023-05-10T03:38:49;9.88;;;6.88;;
45392;SDS011;31129;44.810;10.334;2023-05-10T03:41:14;7.78;;;6.97;;
45392;SDS011;31129;44.810;10.334;2023-05-10T03:43:40;9.20;;;7.00;;
45392;SDS011;31129;44.810;10.334;2023-05-10T03:46:06;7.82;;;6.95;;
45392;SDS011;31129;44.810;10.334;2023-05-10T03:48:32;9.48;;;6.53;;
45392;SDS011;31129;44.810;10.334;2023-05-10T03:50:58;8.40;;;7.22;;
45392;SDS011;31129;44.810;10.334;2023-05-10T03:53:24;12.00;;;7.63;;
45392;SDS011;31129;44.810;10.334;2023-05-10T03:55:49;8.18;;;6.22;;
45392;SDS011;31129;44.810;10.334;2023-05-10T03:58:15;10.32;;;7.18;;
45392;SDS011;31129;44.810;10.334;2023-05-10T04:00:40;11.02;;;6.25;;
45392;SDS011;31129;44.810;10.334;2023-05-10T04:03:13;6.80;;;5.88;;
45392;SDS011;31129;44.810;10.334;2023-05-10T04:05:39;7.93;;;6.63;;
45392;SDS011;31129;44.810;10.334;2023-05-10T04:08:05;7.53;;;6.50;;
45392;SDS011;31129;44.810;10.334;2023-05-10T04:10:31;7.75;;;6.30;;
45392;SDS011;31129;44.810;10.334;2023-05-10T04:13:08;9.35;;;6.47;;
45392;SDS011;31129;44.810;10.334;2023-05-10T04:15:36;8.30;;;6.45;;
45392;SDS011;31129;44.810;10.334;2023-05-10T04:18:02;6.20;;;5.60;;
45392;SDS011;31129;44.810;10.334;2023-05-10T04:20:28;7.55;;;5.68;;
45392;SDS011;31129;44.810;10.334;2023-05-10T04:25:21;7.65;;;5.63;;
45392;SDS011;31129;44.810;10.334;2023-05-10T04:27:47;9.13;;;5.85;;
45392;SDS011;31129;44.810;10.334;2023-05-10T04:30:13;6.80;;;5.53;;
45392;SDS011;31129;44.810;10.334;2023-05-10T04:32:38;8.82;;;5.97;;
45392;SDS011;31129;44.810;10.334;2023-05-10T04:35:07;8.70;;;6.15;;
45392;SDS011;31129;44.810;10.334;2023-05-10T04:37:38;6.78;;;5.97;;
45392;SDS011;31129;44.810;10.334;2023-05-10T04:40:04;7.03;;;5.53;;
45392;SDS011;31129;44.810;10.334;2023-05-10T04:42:31;7.45;;;6.25;;
45392;SDS011;31129;44.810;10.334;2023-05-10T04:44:57;9.73;;;6.47;;
45392;SDS011;31129;44.810;10.334;2023-05-10T04:47:26;8.45;;;6.50;;
45392;SDS011;31129;44.810;10.334;2023-05-10T04:49:54;10.82;;;6.63;;
45392;SDS011;31129;44.810;10.334;2023-05-10T04:52:20;9.27;;;7.15;;
45392;SDS011;31129;44.810;10.334;2023-05-10T04:54:48;8.00;;;6.47;;
45392;SDS011;31129;44.810;10.334;2023-05-10T04:57:14;12.00;;;5.72;;
45392;SDS011;31129;44.810;10.334;2023-05-10T04:59:39;9.18;;;6.43;;
45392;SDS011;31129;44.810;10.334;2023-05-10T05:02:05;10.02;;;6.60;;
45392;SDS011;31129;44.810;10.334;2023-05-10T05:04:33;7.50;;;5.95;;
45392;SDS011;31129;44.810;10.334;2023-05-10T05:07:02;7.20;;;6.50;;
45392;SDS011;31129;44.810;10.334;2023-05-10T05:09:27;6.85;;;5.68;;
45392;SDS011;31129;44.810;10.334;2023-05-10T05:11:56;6.30;;;5.60;;
45392;SDS011;31129;44.810;10.334;2023-05-10T05:14:24;6.82;;;5.60;;
45392;SDS011;31129;44.810;10.334;2023-05-10T05:16:50;6.30;;;5.50;;
45392;SDS011;31129;44.810;10.334;2023-05-10T05:19:20;7.53;;;5.90;;
45392;SDS011;31129;44.810;10.334;2023-05-10T05:21:46;11.52;;;6.00;;
45392;SDS011;31129;44.810;10.334;2023-05-10T05:24:12;10.02;;;5.97;;
45392;SDS011;31129;44.810;10.334;2023-05-10T05:26:37;6.82;;;6.15;;
45392;SDS011;31129;44.810;10.334;2023-05-10T05:29:03;7.03;;;6.40;;
45392;SDS011;31129;44.810;10.334;2023-05-10T05:31:29;7.30;;;6.18;;
45392;SDS011;31129;44.810;10.334;2023-05-10T05:33:55;13.27;;;6.35;;
45392;SDS011;31129;44.810;10.334;2023-05-10T05:36:21;8.05;;;6.03;;
45392;SDS011;31129;44.810;10.334;2023-05-10T05:38:47;6.97;;;5.20;;
45392;SDS011;31129;44.810;10.334;2023-05-10T05:41:12;9.63;;;6.25;;
45392;SDS011;31129;44.810;10.334;2023-05-10T05:43:38;7.80;;;5.30;;
45392;SDS011;31129;44.810;10.334;2023-05-10T05:46:04;7.07;;;5.50;;
45392;SDS011;31129;44.810;10.334;2023-05-10T05:48:30;8.07;;;5.93;;
45392;SDS011;31129;44.810;10.334;2023-05-10T05:50:59;9.50;;;5.68;;
45392;SDS011;31129;44.810;10.334;2023-05-10T05:53:24;7.05;;;6.15;;
45392;SDS011;31129;44.810;10.334;2023-05-10T05:55:51;9.75;;;6.03;;
45392;SDS011;31129;44.810;10.334;2023-05-10T05:58:20;7.00;;;5.53;;
45392;SDS011;31129;44.810;10.334;2023-05-10T06:00:46;11.20;;;6.03;;
45392;SDS011;31129;44.810;10.334;2023-05-10T06:03:11;7.13;;;5.50;;
45392;SDS011;31129;44.810;10.334;2023-05-10T06:05:43;8.10;;;5.75;;
45392;SDS011;31129;44.810;10.334;2023-05-10T06:08:09;7.43;;;5.60;;
45392;SDS011;31129;44.810;10.334;2023-05-10T06:10:35;8.90;;;5.68;;
45392;SDS011;31129;44.810;10.334;2023-05-10T06:13:01;12.95;;;5.93;;
45392;SDS011;31129;44.810;10.334;2023-05-10T06:15:33;7.95;;;6.10;;
45392;SDS011;31129;44.810;10.334;2023-05-10T06:17:59;7.22;;;5.55;;
45392;SDS011;31129;44.810;10.334;2023-05-10T06:20:25;8.60;;;5.53;;
45392;SDS011;31129;44.810;10.334;2023-05-10T06:22:50;11.60;;;5.88;;
45392;SDS011;31129;44.810;10.334;2023-05-10T06:25:16;8.55;;;5.80;;
45392;SDS011;31129;44.810;10.334;2023-05-10T06:27:46;8.95;;;5.72;;
45392;SDS011;31129;44.810;10.334;2023-05-10T06:30:11;10.98;;;5.47;;
45392;SDS011;31129;44.810;10.334;2023-05-10T06:32:38;6.95;;;5.13;;
45392;SDS011;31129;44.810;10.334;2023-05-10T06:35:04;8.07;;;5.32;;
45392;SDS011;31129;44.810;10.334;2023-05-10T06:37:29;11.32;;;5.97;;
45392;SDS011;31129;44.810;10.334;2023-05-10T06:39:55;8.70;;;5.70;;
45392;SDS011;31129;44.810;10.334;2023-05-10T06:42:21;7.95;;;4.80;;
45392;SDS011;31129;44.810;10.334;2023-05-10T06:44:46;8.35;;;5.78;;
45392;SDS011;31129;44.810;10.334;2023-05-10T06:47:12;10.73;;;5.65;;
45392;SDS011;31129;44.810;10.334;2023-05-10T06:49:37;9.85;;;5.78;;
45392;SDS011;31129;44.810;10.334;2023-05-10T06:52:02;7.90;;;5.85;;
45392;SDS011;31129;44.810;10.334;2023-05-10T06:54:28;8.35;;;5.53;;
45392;SDS011;31129;44.810;10.334;2023-05-10T06:56:53;7.63;;;5.05;;
45392;SDS011;31129;44.810;10.334;2023-05-10T06:59:19;6.75;;;4.45;;
45392;SDS011;31129;44.810;10.334;2023-05-10T07:01:46;5.63;;;4.43;;
45392;SDS011;31129;44.810;10.334;2023-05-10T07:04:12;5.88;;;5.10;;
45392;SDS011;31129;44.810;10.334;2023-05-10T07:06:37;7.47;;;4.88;;
45392;SDS011;31129;44.810;10.334;2023-05-10T07:09:03;6.78;;;4.13;;
45392;SDS011;31129;44.810;10.334;2023-05-10T07:11:28;7.85;;;4.55;;
45392;SDS011;31129;44.810;10.334;2023-05-10T07:13:54;6.43;;;4.72;;
45392;SDS011;31129;44.810;10.334;2023-05-10T07:16:19;7.50;;;4.82;;
45392;SDS011;31129;44.810;10.334;2023-05-10T07:18:46;7.47;;;4.30;;
45392;SDS011;31129;44.810;10.334;2023-05-10T07:21:11;7.18;;;4.63;;
45392;SDS011;31129;44.810;10.334;2023-05-10T07:23:37;9.40;;;5.10;;
45392;SDS011;31129;44.810;10.334;2023-05-10T07:26:02;10.48;;;5.28;;
45392;SDS011;31129;44.810;10.334;2023-05-10T07:28:28;8.02;;;4.97;;
45392;SDS011;31129;44.810;10.334;2023-05-10T07:30:53;6.88;;;4.43;;
45392;SDS011;31129;44.810;10.334;2023-05-10T07:33:19;7.20;;;4.70;;
45392;SDS011;31129;44.810;10.334;2023-05-10T07:35:44;7.28;;;4.82;;
45392;SDS011;31129;44.810;10.334;2023-05-10T07:38:10;7.68;;;5.15;;
45392;SDS011;31129;44.810;10.334;2023-05-10T07:40:36;7.28;;;4.90;;
45392;SDS011;31129;44.810;10.334;2023-05-10T07:43:02;11.02;;;5.75;;
45392;SDS011;31129;44.810;10.334;2023-05-10T07:45:27;9.98;;;5.25;;
45392;SDS011;31129;44.810;10.334;2023-05-10T07:47:53;7.40;;;5.25;;
45392;SDS011;31129;44.810;10.334;2023-05-10T07:50:19;7.45;;;6.15;;
45392;SDS011;31129;44.810;10.334;2023-05-10T07:52:46;7.05;;;5.03;;
45392;SDS011;31129;44.810;10.334;2023-05-10T07:55:12;8.68;;;5.15;;
45392;SDS011;31129;44.810;10.334;2023-05-10T07:57:37;6.35;;;5.10;;
45392;SDS011;31129;44.810;10.334;2023-05-10T08:00:03;7.57;;;5.47;;
45392;SDS011;31129;44.810;10.334;2023-05-10T08:02:38;10.68;;;5.70;;
45392;SDS011;31129;44.810;10.334;2023-05-10T08:05:04;9.30;;;5.45;;
45392;SDS011;31129;44.810;10.334;2023-05-10T08:07:30;10.57;;;5.53;;
45392;SDS011;31129;44.810;10.334;2023-05-10T08:09:56;8.07;;;5.22;;
45392;SDS011;31129;44.810;10.334;2023-05-10T08:12:23;7.40;;;5.85;;
45392;SDS011;31129;44.810;10.334;2023-05-10T08:14:49;7.50;;;6.22;;
45392;SDS011;31129;44.810;10.334;2023-05-10T08:17:15;6.55;;;5.90;;
45392;SDS011;31129;44.810;10.334;2023-05-10T08:19:40;9.88;;;6.03;;
45392;SDS011;31129;44.810;10.334;2023-05-10T08:22:05;8.05;;;5.93;;
45392;SDS011;31129;44.810;10.334;2023-05-10T08:24:31;8.27;;;5.95;;
45392;SDS011;31129;44.810;10.334;2023-05-10T08:26:56;8.48;;;5.13;;
45392;SDS011;31129;44.810;10.334;2023-05-10T08:29:22;7.60;;;5.45;;
45392;SDS011;31129;44.810;10.334;2023-05-10T08:31:47;8.80;;;6.35;;
45392;SDS011;31129;44.810;10.334;2023-05-10T08:34:13;8.88;;;6.40;;
45392;SDS011;31129;44.810;10.334;2023-05-10T08:36:38;7.65;;;5.45;;
45392;SDS011;31129;44.810;10.334;2023-05-10T08:39:04;8.20;;;6.00;;
45392;SDS011;31129;44.810;10.334;2023-05-10T08:41:29;7.90;;;5.03;;
45392;SDS011;31129;44.810;10.334;2023-05-10T08:43:58;8.90;;;5.80;;
45392;SDS011;31129;44.810;10.334;2023-05-10T08:46:25;7.57;;;5.78;;
45392;SDS011;31129;44.810;10.334;2023-05-10T08:48:52;8.25;;;5.53;;
45392;SDS011;31129;44.810;10.334;2023-05-10T08:51:19;10.90;;;6.45;;
45392;SDS011;31129;44.810;10.334;2023-05-10T08:53:50;8.27;;;6.53;;
45392;SDS011;31129;44.810;10.334;2023-05-10T08:56:16;10.23;;;6.45;;
45392;SDS011;31129;44.810;10.334;2023-05-10T08:58:42;9.77;;;6.05;;
45392;SDS011;31129;44.810;10.334;2023-05-10T09:01:08;8.05;;;5.57;;
45392;SDS011;31129;44.810;10.334;2023-05-10T09:03:34;7.88;;;5.22;;
45392;SDS011;31129;44.810;10.334;2023-05-10T09:06:00;7.75;;;5.53;;
45392;SDS011;31129;44.810;10.334;2023-05-10T09:08:26;6.78;;;4.90;;
45392;SDS011;31129;44.810;10.334;2023-05-10T09:10:53;7.53;;;5.10;;
45392;SDS011;31129;44.810;10.334;2023-05-10T09:13:19;8.45;;;4.55;;
45392;SDS011;31129;44.810;10.334;2023-05-10T09:15:47;8.27;;;5.20;;
45392;SDS011;31129;44.810;10.334;2023-05-10T09:18:13;6.70;;;5.00;;
45392;SDS011;31129;44.810;10.334;2023-05-10T09:20:38;7.43;;;5.22;;
45392;SDS011;31129;44.810;10.334;2023-05-10T09:23:05;6.60;;;5.05;;
45392;SDS011;31129;44.810;10.334;2023-05-10T09:25:30;7.18;;;4.45;;
45392;SDS011;31129;44.810;10.334;2023-05-10T09:27:58;7.72;;;4.80;;
45392;SDS011;31129;44.810;10.334;2023-05-10T09:30:28;8.82;;;4.38;;
45392;SDS011;31129;44.810;10.334;2023-05-10T09:32:55;6.35;;;4.53;;
45392;SDS011;31129;44.810;10.334;2023-05-10T09:35:22;6.28;;;4.40;;
45392;SDS011;31129;44.810;10.334;2023-05-10T09:37:50;6.15;;;4.65;;
45392;SDS011;31129;44.810;10.334;2023-05-10T09:40:19;5.00;;;4.07;;
45392;SDS011;31129;44.810;10.334;2023-05-10T09:42:54;6.35;;;4.07;;
45392;SDS011;31129;44.810;10.334;2023-05-10T09:45:24;4.17;;;3.77;;
45392;SDS011;31129;44.810;10.334;2023-05-10T09:47:51;5.28;;;4.03;;
45392;SDS011;31129;44.810;10.334;2023-05-10T09:50:16;10.43;;;5.10;;
45392;SDS011;31129;44.810;10.334;2023-05-10T09:52:45;7.45;;;4.72;;
45392;SDS011;31129;44.810;10.334;2023-05-10T09:55:11;6.97;;;4.43;;
45392;SDS011;31129;44.810;10.334;2023-05-10T09:57:37;7.00;;;4.05;;
45392;SDS011;31129;44.810;10.334;2023-05-10T10:00:03;7.15;;;4.30;;
45392;SDS011;31129;44.810;10.334;2023-05-10T10:02:38;9.43;;;4.50;;
45392;SDS011;31129;44.810;10.334;2023-05-10T10:05:05;5.88;;;4.05;;
45392;SDS011;31129;44.810;10.334;2023-05-10T10:07:32;5.05;;;4.22;;
45392;SDS011;31129;44.810;10.334;2023-05-10T10:09:58;6.35;;;4.47;;
45392;SDS011;31129;44.810;10.334;2023-05-10T10:12:25;6.72;;;4.28;;
45392;SDS011;31129;44.810;10.334;2023-05-10T10:14:50;6.32;;;4.43;;
45392;SDS011;31129;44.810;10.334;2023-05-10T10:17:16;5.60;;;3.50;;
45392;SDS011;31129;44.810;10.334;2023-05-10T10:19:42;3.67;;;3.30;;
45392;SDS011;31129;44.810;10.334;2023-05-10T10:22:08;5.43;;;4.00;;
45392;SDS011;31129;44.810;10.334;2023-05-10T10:24:37;8.45;;;4.60;;
45392;SDS011;31129;44.810;10.334;2023-05-10T10:27:07;6.43;;;4.45;;
45392;SDS011;31129;44.810;10.334;2023-05-10T10:35:30;6.05;;;4.40;;
45392;SDS011;31129;44.810;10.334;2023-05-10T10:37:57;7.30;;;4.53;;
45392;SDS011;31129;44.810;10.334;2023-05-10T10:40:32;5.30;;;4.00;;
45392;SDS011;31129;44.810;10.334;2023-05-10T10:43:20;5.60;;;4.60;;
45392;SDS011;31129;44.810;10.334;2023-05-10T10:48:37;7.00;;;4.05;;
45392;SDS011;31129;44.810;10.334;2023-05-10T10:51:02;15.07;;;5.35;;
45392;SDS011;31129;44.810;10.334;2023-05-10T10:53:28;5.32;;;4.60;;
45392;SDS011;31129;44.810;10.334;2023-05-10T10:56:07;6.85;;;4.20;;
45392;SDS011;31129;44.810;10.334;2023-05-10T10:58:35;7.25;;;4.25;;
45392;SDS011;31129;44.810;10.334;2023-05-10T11:03:38;20.10;;;6.75;;
45392;SDS011;31129;44.810;10.334;2023-05-10T11:06:03;7.60;;;5.65;;
45392;SDS011;31129;44.810;10.334;2023-05-10T11:08:30;4.65;;;4.18;;
45392;SDS011;31129;44.810;10.334;2023-05-10T11:13:29;5.93;;;4.68;;
45392;SDS011;31129;44.810;10.334;2023-05-10T11:15:58;5.13;;;4.13;;
45392;SDS011;31129;44.810;10.334;2023-05-10T11:18:36;5.45;;;4.50;;
45392;SDS011;31129;44.810;10.334;2023-05-10T11:21:02;5.50;;;4.40;;
45392;SDS011;31129;44.810;10.334;2023-05-10T11:23:47;5.65;;;4.30;;
45392;SDS011;31129;44.810;10.334;2023-05-10T11:26:14;4.80;;;3.97;;
45392;SDS011;31129;44.810;10.334;2023-05-10T11:28:43;6.97;;;4.00;;
45392;SDS011;31129;44.810;10.334;2023-05-10T11:31:10;4.53;;;4.13;;
45392;SDS011;31129;44.810;10.334;2023-05-10T11:33:43;5.70;;;4.80;;
45392;SDS011;31129;44.810;10.334;2023-05-10T11:39:05;6.50;;;4.80;;
45392;SDS011;31129;44.810;10.334;2023-05-10T11:41:31;8.32;;;5.30;;
45392;SDS011;31129;44.810;10.334;2023-05-10T11:44:03;5.03;;;4.30;;
45392;SDS011;31129;44.810;10.334;2023-05-10T11:46:29;5.45;;;4.63;;
45392;SDS011;31129;44.810;10.334;2023-05-10T11:48:58;4.90;;;4.13;;
45392;SDS011;31129;44.810;10.334;2023-05-10T11:51:26;5.38;;;4.50;;
45392;SDS011;31129;44.810;10.334;2023-05-10T11:53:53;6.75;;;4.25;;
45392;SDS011;31129;44.810;10.334;2023-05-10T11:56:20;5.25;;;4.47;;
45392;SDS011;31129;44.810;10.334;2023-05-10T11:58:51;4.97;;;4.32;;
45392;SDS011;31129;44.810;10.334;2023-05-10T12:01:18;5.22;;;4.03;;
45392;SDS011;31129;44.810;10.334;2023-05-10T12:03:43;6.10;;;4.00;;
45392;SDS011;31129;44.810;10.334;2023-05-10T12:06:09;8.63;;;4.72;;
45392;SDS011;31129;44.810;10.334;2023-05-10T12:08:35;6.90;;;4.85;;
45392;SDS011;31129;44.810;10.334;2023-05-10T12:11:04;6.38;;;4.15;;
45392;SDS011;31129;44.810;10.334;2023-05-10T12:13:39;5.80;;;4.25;;
45392;SDS011;31129;44.810;10.334;2023-05-10T12:16:18;7.00;;;4.35;;
45392;SDS011;31129;44.810;10.334;2023-05-10T12:18:48;6.22;;;4.03;;
45392;SDS011;31129;44.810;10.334;2023-05-10T12:21:18;5.25;;;4.40;;
45392;SDS011;31129;44.810;10.334;2023-05-10T12:23:45;7.83;;;4.90;;
45392;SDS011;31129;44.810;10.334;2023-05-10T12:26:11;5.28;;;3.95;;
45392;SDS011;31129;44.810;10.334;2023-05-10T12:28:37;5.40;;;4.63;;
45392;SDS011;31129;44.810;10.334;2023-05-10T12:31:05;6.85;;;4.80;;
45392;SDS011;31129;44.810;10.334;2023-05-10T12:33:38;6.40;;;5.10;;
45392;SDS011;31129;44.810;10.334;2023-05-10T12:36:14;4.80;;;4.30;;
45392;SDS011;31129;44.810;10.334;2023-05-10T12:38:46;5.13;;;4.38;;
45392;SDS011;31129;44.810;10.334;2023-05-10T12:41:17;5.95;;;4.70;;
45392;SDS011;31129;44.810;10.334;2023-05-10T12:43:43;4.88;;;4.38;;
45392;SDS011;31129;44.810;10.334;2023-05-10T12:46:11;5.30;;;4.43;;
45392;SDS011;31129;44.810;10.334;2023-05-10T12:48:38;5.35;;;4.25;;
45392;SDS011;31129;44.810;10.334;2023-05-10T12:51:04;5.35;;;4.45;;
45392;SDS011;31129;44.810;10.334;2023-05-10T12:53:30;4.72;;;4.28;;
45392;SDS011;31129;44.810;10.334;2023-05-10T12:55:56;5.15;;;4.50;;
45392;SDS011;31129;44.810;10.334;2023-05-10T12:58:22;10.73;;;6.28;;
45392;SDS011;31129;44.810;10.334;2023-05-10T13:00:48;7.93;;;6.32;;
45392;SDS011;31129;44.810;10.334;2023-05-10T13:03:13;7.93;;;4.78;;
45392;SDS011;31129;44.810;10.334;2023-05-10T13:05:40;5.93;;;4.70;;
45392;SDS011;31129;44.810;10.334;2023-05-10T13:08:06;5.68;;;3.92;;
45392;SDS011;31129;44.810;10.334;2023-05-10T13:10:31;10.88;;;6.13;;
45392;SDS011;31129;44.810;10.334;2023-05-10T13:12:57;6.10;;;5.50;;
45392;SDS011;31129;44.810;10.334;2023-05-10T13:15:23;5.32;;;4.63;;
45392;SDS011;31129;44.810;10.334;2023-05-10T13:17:50;6.13;;;4.82;;
45392;SDS011;31129;44.810;10.334;2023-05-10T13:20:15;4.63;;;4.07;;
45392;SDS011;31129;44.810;10.334;2023-05-10T13:22:42;5.78;;;3.97;;
45392;SDS011;31129;44.810;10.334;2023-05-10T13:25:08;5.20;;;4.60;;
45392;SDS011;31129;44.810;10.334;2023-05-10T13:27:34;7.03;;;5.22;;
45392;SDS011;31129;44.810;10.334;2023-05-10T13:30:00;6.95;;;5.70;;
45392;SDS011;31129;44.810;10.334;2023-05-10T13:32:25;5.93;;;5.05;;
45392;SDS011;31129;44.810;10.334;2023-05-10T13:34:51;5.70;;;4.75;;
45392;SDS011;31129;44.810;10.334;2023-05-10T13:37:17;7.47;;;4.82;;
45392;SDS011;31129;44.810;10.334;2023-05-10T13:39:42;7.28;;;5.72;;
45392;SDS011;31129;44.810;10.334;2023-05-10T13:42:08;5.00;;;3.83;;
45392;SDS011;31129;44.810;10.334;2023-05-10T13:44:33;4.50;;;4.05;;
45392;SDS011;31129;44.810;10.334;2023-05-10T13:46:59;4.88;;;4.07;;
45392;SDS011;31129;44.810;10.334;2023-05-10T13:49:25;5.80;;;4.20;;
45392;SDS011;31129;44.810;10.334;2023-05-10T13:51:50;5.68;;;4.50;;
45392;SDS011;31129;44.810;10.334;2023-05-10T13:54:16;7.15;;;4.38;;
45392;SDS011;31129;44.810;10.334;2023-05-10T13:56:44;8.73;;;4.20;;
45392;SDS011;31129;44.810;10.334;2023-05-10T13:59:12;7.63;;;4.55;;
45392;SDS011;31129;44.810;10.334;2023-05-10T14:01:39;5.55;;;4.97;;
45392;SDS011;31129;44.810;10.334;2023-05-10T14:04:05;4.75;;;4.35;;
45392;SDS011;31129;44.810;10.334;2023-05-10T14:06:30;10.75;;;5.13;;
45392;SDS011;31129;44.810;10.334;2023-05-10T14:08:56;5.35;;;4.72;;
45392;SDS011;31129;44.810;10.334;2023-05-10T14:11:21;8.35;;;5.10;;
45392;SDS011;31129;44.810;10.334;2023-05-10T14:13:46;7.97;;;4.85;;
45392;SDS011;31129;44.810;10.334;2023-05-10T14:16:12;7.05;;;4.72;;
45392;SDS011;31129;44.810;10.334;2023-05-10T14:18:39;12.33;;;10.10;;
45392;SDS011;31129;44.810;10.334;2023-05-10T14:21:05;9.00;;;7.35;;
45392;SDS011;31129;44.810;10.334;2023-05-10T14:23:31;10.38;;;7.68;;
45392;SDS011;31129;44.810;10.334;2023-05-10T14:25:57;7.75;;;6.22;;
45392;SDS011;31129;44.810;10.334;2023-05-10T14:28:22;6.57;;;4.35;;
45392;SDS011;31129;44.810;10.334;2023-05-10T14:30:48;5.38;;;4.60;;
45392;SDS011;31129;44.810;10.334;2023-05-10T14:33:14;6.38;;;4.45;;
45392;SDS011;31129;44.810;10.334;2023-05-10T14:35:43;5.72;;;5.13;;
45392;SDS011;31129;44.810;10.334;2023-05-10T14:38:10;5.30;;;4.80;;
45392;SDS011;31129;44.810;10.334;2023-05-10T14:40:36;7.00;;;4.50;;
45392;SDS011;31129;44.810;10.334;2023-05-10T14:43:01;6.45;;;4.97;;
45392;SDS011;31129;44.810;10.334;2023-05-10T14:45:27;6.03;;;4.85;;
45392;SDS011;31129;44.810;10.334;2023-05-10T14:47:52;6.13;;;4.82;;
45392;SDS011;31129;44.810;10.334;2023-05-10T14:50:18;7.85;;;6.03;;
45392;SDS011;31129;44.810;10.334;2023-05-10T14:52:44;6.25;;;5.45;;
45392;SDS011;31129;44.810;10.334;2023-05-10T14:57:37;6.85;;;5.90;;
45392;SDS011;31129;44.810;10.334;2023-05-10T15:00:03;9.13;;;5.32;;
45392;SDS011;31129;44.810;10.334;2023-05-10T15:02:32;6.35;;;5.53;;
45392;SDS011;31129;44.810;10.334;2023-05-10T15:04:58;7.93;;;5.40;;